Meteorología y climatología de Navarra
Datos de la estación - Meteo Navarra

Estación de Iñarbegi GN

Altitud 585 m.


Datos desde el 09/01/2022 hasta el 10/01/2022 en horario solar
Los datos son PROVISIONALES

Anterior Página 1 de 1 Siguiente Descargar: Formato para Excel 2000 o superior   Formato csv   Formato para OpenOffice Calc
Fecha Temperatura Humedad relativa Radiación global Insolación Precipitación Vel. viento 10 m Vel. viento 10 m Dir. viento 10 m
°C % W/m² s l/m² m/s km/h °
09/01/2022 0:00 7.1 93 - - - - 0.3 - - - - - -
09/01/2022 0:10 7.0 94 - - - - 1.0 - - - - - -
09/01/2022 0:20 6.9 95 - - - - 0.6 - - - - - -
09/01/2022 0:30 6.9 96 - - - - 0.3 - - - - - -
09/01/2022 0:40 6.9 96 - - - - 0.2 - - - - - -
09/01/2022 0:50 7.0 96 - - - - 0.2 - - - - - -
09/01/2022 1:00 6.9 95 - - - - 0.5 - - - - - -
09/01/2022 1:10 7.0 94 - - - - 0.5 - - - - - -
09/01/2022 1:20 6.9 94 - - - - 0.6 - - - - - -
09/01/2022 1:30 6.9 93 - - - - 0.5 - - - - - -
09/01/2022 1:40 6.8 94 - - - - 0.9 - - - - - -
09/01/2022 1:50 6.7 95 - - - - 0.2 - - - - - -
09/01/2022 2:00 6.6 96 - - - - 0.7 - - - - - -
09/01/2022 2:10 6.5 96 - - - - 0.5 - - - - - -
09/01/2022 2:20 6.5 97 - - - - 1.0 - - - - - -
09/01/2022 2:30 6.6 97 - - - - 0.2 - - - - - -
09/01/2022 2:40 6.6 97 - - - - 0.3 - - - - - -
09/01/2022 2:50 6.6 97 - - - - 0.8 - - - - - -
09/01/2022 3:00 6.6 96 - - - - 0.8 - - - - - -
09/01/2022 3:10 6.6 96 - - - - 0.8 - - - - - -
09/01/2022 3:20 6.6 96 - - - - 0.7 - - - - - -
09/01/2022 3:30 6.5 96 - - - - 0.3 - - - - - -
09/01/2022 3:40 6.5 96 - - - - 0.2 - - - - - -
09/01/2022 3:50 6.5 96 - - - - 0.1 - - - - - -
09/01/2022 4:00 6.6 95 - - - - 0.0 - - - - - -
09/01/2022 4:10 6.6 94 - - - - 0.0 - - - - - -
09/01/2022 4:20 6.5 94 - - - - 0.0 - - - - - -
09/01/2022 4:30 6.7 90 - - - - 0.1 - - - - - -
09/01/2022 4:40 6.6 92 - - - - 0.1 - - - - - -
09/01/2022 4:50 6.4 93 - - - - 0.3 - - - - - -
09/01/2022 5:00 6.5 92 - - - - 0.6 - - - - - -
09/01/2022 5:10 6.3 91 - - - - 0.3 - - - - - -
09/01/2022 5:20 6.1 93 - - - - 0.2 - - - - - -
09/01/2022 5:30 6.1 93 - - - - 0.1 - - - - - -
09/01/2022 5:40 6.3 92 - - - - 0.1 - - - - - -
09/01/2022 5:50 6.3 92 - - - - 0.1 - - - - - -
09/01/2022 6:00 6.2 93 - - - - 0.2 - - - - - -
09/01/2022 6:10 6.2 93 - - - - 0.4 - - - - - -
09/01/2022 6:20 6.3 93 - - - - 0.2 - - - - - -
09/01/2022 6:30 6.2 93 - - - - 0.0 - - - - - -
09/01/2022 6:40 6.3 93 - - - - 0.1 - - - - - -
09/01/2022 6:50 6.3 94 - - - - 0.0 - - - - - -
09/01/2022 7:00 6.6 91 - - - - 0.2 - - - - - -
09/01/2022 7:10 6.8 90 - - - - 0.2 - - - - - -
09/01/2022 7:20 6.8 89 - - - - 0.6 - - - - - -
09/01/2022 7:30 6.8 89 - - - - 0.2 - - - - - -
09/01/2022 7:40 7.0 87 - - - - 0.0 - - - - - -
09/01/2022 7:50 7.0 85 - - - - 0.2 - - - - - -
09/01/2022 8:00 7.0 86 - - - - 0.1 - - - - - -
09/01/2022 8:10 6.9 86 - - - - 0.2 - - - - - -
09/01/2022 8:20 6.7 90 - - - - 0.8 - - - - - -
09/01/2022 8:30 6.7 89 - - - - 0.4 - - - - - -
09/01/2022 8:40 6.8 90 - - - - 0.9 - - - - - -
09/01/2022 8:50 6.7 91 - - - - 0.5 - - - - - -
09/01/2022 9:00 6.6 92 - - - - 0.5 - - - - - -
09/01/2022 9:10 6.7 91 - - - - 0.8 - - - - - -
09/01/2022 9:20 6.6 93 - - - - 0.7 - - - - - -
09/01/2022 9:30 6.7 92 - - - - 0.9 - - - - - -
09/01/2022 9:40 6.6 93 - - - - 0.4 - - - - - -
09/01/2022 9:50 6.5 94 - - - - 0.9 - - - - - -
09/01/2022 10:00 6.6 95 - - - - 0.7 - - - - - -
09/01/2022 10:10 6.6 96 - - - - 0.4 - - - - - -
09/01/2022 10:20 6.6 96 - - - - 0.2 - - - - - -
09/01/2022 10:30 6.8 94 - - - - 0.7 - - - - - -
09/01/2022 10:40 6.7 95 - - - - 0.5 - - - - - -
09/01/2022 10:50 6.8 94 - - - - 0.6 - - - - - -
09/01/2022 11:00 6.8 95 - - - - 0.9 - - - - - -
09/01/2022 11:10 7.0 94 - - - - 0.8 - - - - - -
09/01/2022 11:20 7.1 89 - - - - 0.1 - - - - - -
09/01/2022 11:30 6.9 90 - - - - 0.6 - - - - - -
09/01/2022 11:40 6.8 92 - - - - 0.5 - - - - - -
09/01/2022 11:50 7.0 92 - - - - 0.7 - - - - - -
09/01/2022 12:00 7.0 94 - - - - 0.6 - - - - - -
09/01/2022 12:10 6.9 96 - - - - 0.7 - - - - - -
09/01/2022 12:20 7.0 97 - - - - 0.9 - - - - - -
09/01/2022 12:30 7.1 97 - - - - 0.9 - - - - - -
09/01/2022 12:40 7.2 95 - - - - 0.7 - - - - - -
09/01/2022 12:50 7.1 95 - - - - 0.8 - - - - - -
09/01/2022 13:00 7.1 95 - - - - 1.0 - - - - - -
09/01/2022 13:10 7.1 93 - - - - 1.0 - - - - - -
09/01/2022 13:20 7.1 91 - - - - 0.6 - - - - - -
09/01/2022 13:30 7.0 92 - - - - 0.3 - - - - - -
09/01/2022 13:40 7.0 90 - - - - 0.3 - - - - - -
09/01/2022 13:50 7.0 92 - - - - 0.6 - - - - - -
09/01/2022 14:00 6.9 95 - - - - 0.6 - - - - - -
09/01/2022 14:10 7.2 95 - - - - 0.7 - - - - - -
09/01/2022 14:20 7.3 94 - - - - 0.4 - - - - - -
09/01/2022 14:30 7.2 92 - - - - 0.2 - - - - - -
09/01/2022 14:40 7.1 91 - - - - 0.2 - - - - - -
09/01/2022 14:50 7.0 93 - - - - 0.3 - - - - - -
09/01/2022 15:00 7.0 95 - - - - 0.5 - - - - - -
09/01/2022 15:10 6.9 96 - - - - 0.6 - - - - - -
09/01/2022 15:20 6.9 96 - - - - 0.4 - - - - - -
09/01/2022 15:30 7.1 95 - - - - 0.5 - - - - - -
09/01/2022 15:40 7.1 96 - - - - 0.3 - - - - - -
09/01/2022 15:50 7.0 96 - - - - 0.5 - - - - - -
09/01/2022 16:00 7.0 97 - - - - 0.9 - - - - - -
09/01/2022 16:10 7.0 97 - - - - 0.7 - - - - - -
09/01/2022 16:20 7.0 98 - - - - 0.7 - - - - - -
09/01/2022 16:30 7.0 98 - - - - 0.7 - - - - - -
09/01/2022 16:40 7.1 98 - - - - 0.7 - - - - - -
09/01/2022 16:50 7.2 98 - - - - 0.7 - - - - - -
09/01/2022 17:00 7.2 98 - - - - 0.7 - - - - - -
09/01/2022 17:10 7.3 98 - - - - 0.7 - - - - - -
09/01/2022 17:20 7.3 98 - - - - 0.3 - - - - - -
09/01/2022 17:30 7.4 98 - - - - 0.4 - - - - - -
09/01/2022 17:40 7.5 98 - - - - 0.6 - - - - - -
09/01/2022 17:50 7.6 98 - - - - 0.6 - - - - - -
09/01/2022 18:00 7.6 98 - - - - 0.7 - - - - - -
09/01/2022 18:10 7.6 98 - - - - 0.4 - - - - - -
09/01/2022 18:20 7.6 98 - - - - 0.6 - - - - - -
09/01/2022 18:30 7.9 98 - - - - 0.4 - - - - - -
09/01/2022 18:40 8.3 98 - - - - 0.9 - - - - - -
09/01/2022 18:50 8.5 98 - - - - 0.6 - - - - - -
09/01/2022 19:00 8.9 98 - - - - 0.7 - - - - - -
09/01/2022 19:10 9.3 98 - - - - 0.9 - - - - - -
09/01/2022 19:20 9.5 97 - - - - 0.8 - - - - - -
09/01/2022 19:30 9.9 97 - - - - 0.8 - - - - - -
09/01/2022 19:40 10.2 98 - - - - 1.0 - - - - - -
09/01/2022 19:50 10.6 97 - - - - 0.8 - - - - - -
09/01/2022 20:00 10.7 97 - - - - 0.8 - - - - - -
09/01/2022 20:10 10.8 97 - - - - 0.3 - - - - - -
09/01/2022 20:20 10.8 97 - - - - 0.4 - - - - - -
09/01/2022 20:30 10.8 97 - - - - 0.5 - - - - - -
09/01/2022 20:40 10.8 97 - - - - 0.3 - - - - - -
09/01/2022 20:50 10.8 97 - - - - 0.6 - - - - - -
09/01/2022 21:00 10.7 97 - - - - 0.2 - - - - - -
09/01/2022 21:10 10.7 97 - - - - 0.4 - - - - - -
09/01/2022 21:20 10.7 98 - - - - 0.5 - - - - - -
09/01/2022 21:30 10.7 98 - - - - 0.5 - - - - - -
09/01/2022 21:40 10.7 98 - - - - 0.9 - - - - - -
09/01/2022 21:50 10.7 98 - - - - 1.0 - - - - - -
09/01/2022 22:00 10.6 98 - - - - 0.4 - - - - - -
09/01/2022 22:10 10.6 98 - - - - 0.5 - - - - - -
09/01/2022 22:20 10.6 98 - - - - 0.3 - - - - - -
09/01/2022 22:30 10.6 98 - - - - 0.3 - - - - - -
09/01/2022 22:40 10.6 98 - - - - 0.4 - - - - - -
09/01/2022 22:50 10.5 98 - - - - 0.5 - - - - - -
09/01/2022 23:00 10.6 98 - - - - 0.4 - - - - - -
09/01/2022 23:10 10.6 98 - - - - 0.5 - - - - - -
09/01/2022 23:20 10.6 98 - - - - 0.6 - - - - - -
09/01/2022 23:30 10.5 98 - - - - 0.8 - - - - - -
09/01/2022 23:40 10.5 98 - - - - 0.7 - - - - - -
09/01/2022 23:50 10.5 98 - - - - 0.7 - - - - - -
Anterior Página 1 de 1 Siguiente

NOTA: Tipo de datos según el color:
   - Valores diarios o 10 minutos correctos
   - Valores diarios calculados a partir de un número de datos 10 minutos menor que 144 y mayor que 120, o de un número de datos semihorarios menor que 48 y mayor que 40 (caso de las estaciones de INTIA Y Ministerio)
   - Valores diez minutos estimados


Contacto        Enlaces        Aviso legal